createdAt,value
2018-02-01T00:00:50.794Z,966.68
2018-02-01T00:01:50.756Z,966.59
2018-02-01T00:02:50.705Z,966.62
2018-02-01T00:03:50.669Z,966.66
2018-02-01T00:04:50.619Z,966.63
2018-02-01T00:05:50.581Z,966.61
2018-02-01T00:06:50.536Z,966.62
2018-02-01T00:07:50.484Z,966.58
2018-02-01T00:08:50.444Z,966.60
2018-02-01T00:09:50.409Z,966.58
2018-02-01T00:10:50.357Z,966.60
2018-02-01T00:11:50.322Z,966.63
2018-02-01T00:12:50.283Z,966.60
2018-02-01T00:13:50.256Z,966.62
2018-02-01T00:14:50.327Z,966.63
2018-02-01T00:15:50.155Z,966.68
2018-02-01T00:16:50.108Z,966.65
2018-02-01T00:17:50.087Z,966.66
2018-02-01T00:18:50.017Z,966.63
2018-02-01T00:19:49.967Z,966.66
2018-02-01T00:20:49.937Z,966.68
2018-02-01T00:21:49.877Z,966.71
2018-02-01T00:22:49.839Z,966.67
2018-02-01T00:23:49.810Z,966.69
2018-02-01T00:24:49.763Z,966.73
2018-02-01T00:25:49.725Z,966.73
2018-02-01T00:26:49.671Z,966.72
2018-02-01T00:27:49.638Z,966.69
2018-02-01T00:28:49.590Z,966.67
2018-02-01T00:29:49.536Z,966.69
2018-02-01T00:30:49.496Z,966.67
2018-02-01T00:31:49.460Z,966.64
2018-02-01T00:32:49.443Z,966.58
2018-02-01T00:33:49.360Z,966.58
2018-02-01T00:34:49.320Z,966.61
2018-02-01T00:35:49.284Z,966.63
2018-02-01T00:36:49.263Z,966.66
2018-02-01T00:37:49.195Z,966.69
2018-02-01T00:38:49.168Z,966.67
2018-02-01T00:39:49.192Z,966.71
2018-02-01T00:40:50.589Z,966.80
2018-02-01T00:41:49.017Z,966.74
2018-02-01T00:42:48.987Z,966.70
2018-02-01T00:43:48.971Z,966.77
2018-02-01T00:44:48.902Z,966.76
2018-02-01T00:45:48.851Z,966.73
2018-02-01T00:46:48.820Z,966.78
2018-02-01T00:47:48.872Z,966.80
2018-02-01T00:48:48.736Z,966.78
2018-02-01T00:49:48.672Z,966.77
2018-02-01T00:50:48.634Z,966.78
2018-02-01T00:51:48.597Z,966.84
2018-02-01T00:52:48.659Z,966.83
2018-02-01T00:53:48.514Z,966.83
2018-02-01T00:54:48.461Z,966.82
2018-02-01T00:55:48.436Z,966.85
2018-02-01T00:56:48.371Z,966.83
2018-02-01T00:57:48.349Z,966.82
2018-02-01T00:58:48.290Z,966.79
2018-02-01T00:59:48.245Z,966.82
2018-02-01T01:00:48.218Z,966.82
2018-02-01T01:01:48.184Z,966.76
2018-02-01T01:02:48.194Z,966.81
2018-02-01T01:03:48.076Z,966.85
2018-02-01T01:04:48.531Z,966.80
2018-02-01T01:05:47.981Z,966.83
2018-02-01T01:06:47.942Z,966.88
2018-02-01T01:07:47.940Z,966.88
2018-02-01T01:08:47.865Z,966.87
2018-02-01T01:09:47.812Z,966.91
2018-02-01T01:10:47.764Z,966.95
2018-02-01T01:11:47.757Z,966.99
2018-02-01T01:12:47.688Z,967.06
2018-02-01T01:13:47.642Z,967.05
2018-02-01T01:14:47.600Z,967.03
2018-02-01T01:15:47.573Z,967.05
2018-02-01T01:16:47.529Z,967.01
2018-02-01T01:17:47.479Z,967.08
2018-02-01T01:18:47.449Z,967.08
2018-02-01T01:19:47.398Z,967.09
2018-02-01T01:20:47.388Z,967.09
2018-02-01T01:21:47.329Z,967.06
2018-02-01T01:22:47.272Z,967.05
2018-02-01T01:23:47.220Z,967.07
2018-02-01T01:24:47.227Z,967.07
2018-02-01T01:25:49.108Z,967.07
2018-02-01T01:26:47.093Z,967.04
2018-02-01T01:27:47.047Z,967.03
2018-02-01T01:28:47.032Z,967.06
2018-02-01T01:29:46.967Z,967.01
2018-02-01T01:30:46.918Z,967.07
2018-02-01T01:31:46.872Z,967.06
2018-02-01T01:32:46.824Z,967.04
2018-02-01T01:33:46.780Z,967.05
2018-02-01T01:34:46.752Z,967.02
2018-02-01T01:35:46.697Z,967.02
2018-02-01T01:36:46.661Z,967.03
2018-02-01T01:37:46.604Z,967.00
2018-02-01T01:38:46.572Z,967.01
2018-02-01T01:39:46.535Z,967.04
2018-02-01T01:40:46.490Z,967.07
2018-02-01T01:41:46.440Z,967.10
2018-02-01T01:42:46.407Z,967.04
2018-02-01T01:43:46.349Z,967.03
2018-02-01T01:44:46.300Z,967.01
2018-02-01T01:45:46.259Z,966.97
2018-02-01T01:46:46.252Z,966.93
2018-02-01T01:47:46.171Z,966.93
2018-02-01T01:48:46.129Z,966.89
2018-02-01T01:49:46.090Z,966.90
2018-02-01T01:50:46.061Z,966.89
2018-02-01T01:51:46.001Z,966.90
2018-02-01T01:52:45.978Z,966.92
2018-02-01T01:53:45.916Z,966.85
2018-02-01T01:54:45.892Z,966.83
2018-02-01T01:55:45.835Z,966.78
2018-02-01T01:56:45.823Z,966.77
2018-02-01T01:57:45.757Z,966.78
2018-02-01T01:58:45.712Z,966.83
2018-02-01T01:59:45.652Z,966.87
2018-02-01T02:00:45.613Z,966.80
2018-02-01T02:01:45.615Z,966.83
2018-02-01T02:02:45.528Z,966.81
2018-02-01T02:03:45.485Z,966.76
2018-02-01T02:04:45.453Z,966.77
2018-02-01T02:05:45.398Z,966.80
2018-02-01T02:06:45.373Z,966.83
2018-02-01T02:07:45.316Z,966.78
2018-02-01T02:08:45.274Z,966.82
2018-02-01T02:09:45.224Z,966.80
2018-02-01T02:10:45.182Z,966.83
2018-02-01T02:11:45.142Z,966.84
2018-02-01T02:12:45.105Z,966.82
2018-02-01T02:13:45.053Z,966.82
2018-02-01T02:14:45.043Z,966.80
2018-02-01T02:15:44.970Z,966.81
2018-02-01T02:16:44.921Z,966.77
2018-02-01T02:17:44.885Z,966.74
2018-02-01T02:18:44.841Z,966.76
2018-02-01T02:19:44.795Z,966.76
2018-02-01T02:20:44.749Z,966.74
2018-02-01T02:21:44.722Z,966.73
2018-02-01T02:22:44.671Z,966.69
2018-02-01T02:23:44.635Z,966.67
2018-02-01T02:24:44.572Z,966.66
2018-02-01T02:25:44.553Z,966.59
2018-02-01T02:26:44.511Z,966.57
2018-02-01T02:27:44.471Z,966.57
2018-02-01T02:28:44.411Z,966.51
2018-02-01T02:29:44.379Z,966.51
2018-02-01T02:30:44.319Z,966.53
2018-02-01T02:31:44.293Z,966.50
2018-02-01T02:32:44.262Z,966.52
2018-02-01T02:33:44.186Z,966.48
2018-02-01T02:34:44.140Z,966.49
2018-02-01T02:35:44.133Z,966.48
2018-02-01T02:36:44.070Z,966.49
2018-02-01T02:37:44.069Z,966.50
2018-02-01T02:38:43.978Z,966.46
2018-02-01T02:39:43.949Z,966.45
2018-02-01T02:40:43.892Z,966.47
2018-02-01T02:41:43.879Z,966.48
2018-02-01T02:42:43.819Z,966.49
2018-02-01T02:43:43.768Z,966.55
2018-02-01T02:44:43.717Z,966.63
2018-02-01T02:45:43.668Z,966.69
2018-02-01T02:46:43.626Z,966.71
2018-02-01T02:47:43.581Z,966.73
2018-02-01T02:48:43.546Z,966.87
2018-02-01T02:49:43.508Z,966.82
2018-02-01T02:50:43.476Z,966.82
2018-02-01T02:51:43.427Z,966.97
2018-02-01T02:52:43.370Z,966.80
2018-02-01T02:53:43.322Z,966.80
2018-02-01T02:54:43.272Z,966.79
2018-02-01T02:55:43.241Z,966.84
2018-02-01T02:56:43.187Z,966.91
2018-02-01T02:57:43.149Z,966.89
2018-02-01T02:58:43.113Z,966.89
2018-02-01T02:59:43.063Z,966.92
2018-02-01T03:00:43.044Z,966.88
2018-02-01T03:01:42.976Z,966.91
2018-02-01T03:02:42.935Z,966.94
2018-02-01T03:03:42.882Z,966.99
2018-02-01T03:04:42.839Z,966.99
2018-02-01T03:05:42.791Z,967.02
2018-02-01T03:06:42.751Z,967.07
2018-02-01T03:07:42.728Z,967.13
2018-02-01T03:08:42.669Z,967.19
2018-02-01T03:09:42.638Z,967.17
2018-02-01T03:10:42.574Z,967.19
2018-02-01T03:11:42.550Z,967.20
2018-02-01T03:12:42.514Z,967.16
2018-02-01T03:13:42.462Z,967.14
2018-02-01T03:14:42.434Z,967.18
2018-02-01T03:15:42.369Z,967.18
2018-02-01T03:16:42.315Z,967.27
2018-02-01T03:17:42.261Z,967.27
2018-02-01T03:18:42.234Z,967.27
2018-02-01T03:19:42.180Z,967.26
2018-02-01T03:20:42.156Z,967.30
2018-02-01T03:21:42.120Z,967.25
2018-02-01T03:22:42.053Z,967.22
2018-02-01T03:23:42.004Z,967.28
2018-02-01T03:24:41.946Z,967.24
2018-02-01T03:25:41.917Z,967.24
2018-02-01T03:26:41.898Z,967.26
2018-02-01T03:27:41.824Z,967.24
2018-02-01T03:28:41.781Z,967.35
2018-02-01T03:29:41.728Z,967.39
2018-02-01T03:30:41.684Z,967.33
2018-02-01T03:31:41.676Z,967.37
2018-02-01T03:32:41.642Z,967.38
2018-02-01T03:33:41.545Z,967.34
2018-02-01T03:34:41.525Z,967.35
2018-02-01T03:35:41.466Z,967.29
2018-02-01T03:36:41.428Z,967.28
2018-02-01T03:37:41.421Z,967.30
2018-02-01T03:38:41.369Z,967.24
2018-02-01T03:39:41.295Z,967.20
2018-02-01T03:40:41.271Z,967.19
2018-02-01T03:41:41.233Z,967.22
2018-02-01T03:42:41.138Z,967.17
2018-02-01T03:43:41.114Z,967.21
2018-02-01T03:44:41.055Z,967.22
2018-02-01T03:45:41.007Z,967.17
2018-02-01T03:46:40.971Z,967.20
2018-02-01T03:47:40.914Z,967.28
2018-02-01T03:48:40.873Z,967.27
2018-02-01T03:49:40.841Z,967.32
2018-02-01T03:50:40.816Z,967.35
2018-02-01T03:51:40.747Z,967.34
2018-02-01T03:52:40.703Z,967.35
2018-02-01T03:53:40.667Z,967.37
2018-02-01T03:54:40.612Z,967.40
2018-02-01T03:55:40.580Z,967.38
2018-02-01T03:56:40.517Z,967.43
2018-02-01T03:57:40.469Z,967.41
2018-02-01T03:58:40.453Z,967.40
2018-02-01T03:59:40.377Z,967.43
2018-02-01T04:00:40.340Z,967.53
2018-02-01T04:01:40.296Z,967.51
2018-02-01T04:02:40.263Z,967.57
2018-02-01T04:03:40.202Z,967.61
2018-02-01T04:04:40.170Z,967.57
2018-02-01T04:05:40.150Z,967.60
2018-02-01T04:06:40.067Z,967.56
2018-02-01T04:07:40.044Z,967.57
2018-02-01T04:08:39.984Z,967.61
2018-02-01T04:09:39.938Z,967.60
2018-02-01T04:10:39.887Z,967.63
2018-02-01T04:11:39.882Z,967.61
2018-02-01T04:12:39.828Z,967.54
2018-02-01T04:13:39.759Z,967.55
2018-02-01T04:14:39.722Z,967.50
2018-02-01T04:15:39.668Z,967.46
2018-02-01T04:16:39.608Z,967.52
2018-02-01T04:17:39.568Z,967.51
2018-02-01T04:18:39.535Z,967.53
2018-02-01T04:19:39.500Z,967.52
2018-02-01T04:20:39.481Z,967.50
2018-02-01T04:21:39.403Z,967.52
2018-02-01T04:22:39.371Z,967.50
2018-02-01T04:23:39.344Z,967.52
2018-02-01T04:24:39.274Z,967.53
2018-02-01T04:25:39.205Z,967.55
2018-02-01T04:26:39.172Z,967.50
2018-02-01T04:27:39.130Z,967.48
2018-02-01T04:28:39.092Z,967.50
2018-02-01T04:29:39.080Z,967.51
2018-02-01T04:30:38.993Z,967.53
2018-02-01T04:31:38.935Z,967.54
2018-02-01T04:32:38.908Z,967.52
2018-02-01T04:33:38.889Z,967.51
2018-02-01T04:34:38.809Z,967.47
2018-02-01T04:35:38.754Z,967.44
2018-02-01T04:36:38.704Z,967.49
2018-02-01T04:37:38.674Z,967.44
2018-02-01T04:38:38.610Z,967.42
2018-02-01T04:39:38.576Z,967.43
2018-02-01T04:40:38.552Z,967.45
2018-02-01T04:41:38.502Z,967.40
2018-02-01T04:42:38.449Z,967.34
2018-02-01T04:43:38.392Z,967.37
2018-02-01T04:44:38.338Z,967.36
2018-02-01T04:45:38.325Z,967.31
2018-02-01T04:46:38.260Z,967.31
2018-02-01T04:47:38.214Z,967.28
2018-02-01T04:48:38.181Z,967.24
2018-02-01T04:49:38.109Z,967.30
2018-02-01T04:50:38.132Z,967.29
2018-02-01T04:51:38.030Z,967.36
2018-02-01T04:52:37.979Z,967.33
2018-02-01T04:53:37.938Z,967.34
2018-02-01T04:54:37.895Z,967.39
2018-02-01T04:55:37.850Z,967.36
2018-02-01T04:56:37.812Z,967.39
2018-02-01T04:57:37.750Z,967.40
2018-02-01T04:58:37.726Z,967.42
2018-02-01T04:59:37.666Z,967.43
2018-02-01T05:00:37.635Z,967.42
2018-02-01T05:01:37.579Z,967.46
2018-02-01T05:02:37.519Z,967.48
2018-02-01T05:03:37.484Z,967.48
2018-02-01T05:04:37.459Z,967.46
2018-02-01T05:05:37.394Z,967.46
2018-02-01T05:06:37.334Z,967.40
2018-02-01T05:07:37.328Z,967.40
2018-02-01T05:08:37.248Z,967.41
2018-02-01T05:09:37.205Z,967.46
2018-02-01T05:10:37.156Z,967.51
2018-02-01T05:11:37.131Z,967.59
2018-02-01T05:12:37.069Z,967.64
2018-02-01T05:13:37.020Z,967.68
2018-02-01T05:14:37.053Z,967.68
2018-02-01T05:15:36.966Z,967.71
2018-02-01T05:16:36.880Z,967.69
2018-02-01T05:17:36.829Z,967.71
2018-02-01T05:18:36.797Z,967.77
2018-02-01T05:19:36.747Z,967.78
2018-02-01T05:20:36.707Z,967.78
2018-02-01T05:21:36.659Z,967.76
2018-02-01T05:22:36.607Z,967.77
2018-02-01T05:23:36.568Z,967.79
2018-02-01T05:24:36.531Z,967.77
2018-02-01T05:25:36.499Z,967.79
2018-02-01T05:26:36.450Z,967.76
2018-02-01T05:27:36.393Z,967.75
2018-02-01T05:28:36.347Z,967.74
2018-02-01T05:29:36.291Z,967.73
2018-02-01T05:30:36.232Z,967.70
2018-02-01T05:31:36.196Z,967.73
2018-02-01T05:32:36.154Z,967.71
2018-02-01T05:33:36.096Z,967.74
2018-02-01T05:34:36.055Z,967.73
2018-02-01T05:35:36.013Z,967.72
2018-02-01T05:36:35.972Z,967.75
2018-02-01T05:37:35.914Z,967.77
2018-02-01T05:38:35.887Z,967.75
2018-02-01T05:39:35.838Z,967.73
2018-02-01T05:40:35.784Z,967.80
2018-02-01T05:41:35.758Z,967.78
2018-02-01T05:42:35.745Z,967.75
2018-02-01T05:43:35.649Z,967.79
2018-02-01T05:44:35.605Z,967.79
2018-02-01T05:45:35.558Z,967.78
2018-02-01T05:46:35.511Z,967.75
2018-02-01T05:47:35.480Z,967.80
2018-02-01T05:48:35.424Z,967.74
2018-02-01T05:49:35.374Z,967.80
2018-02-01T05:50:35.332Z,967.82
2018-02-01T05:51:35.274Z,967.81
2018-02-01T05:52:35.239Z,967.81
2018-02-01T05:53:35.187Z,967.79
2018-02-01T05:54:35.151Z,967.80
2018-02-01T05:55:35.098Z,967.78
2018-02-01T05:56:35.078Z,967.84
2018-02-01T05:57:35.004Z,967.80
2018-02-01T05:58:34.966Z,967.85
2018-02-01T05:59:34.913Z,967.90
2018-02-01T06:00:34.890Z,967.89
2018-02-01T06:01:34.821Z,967.93
2018-02-01T06:02:34.784Z,968.03
2018-02-01T06:03:34.739Z,967.96
2018-02-01T06:04:34.685Z,968.00
2018-02-01T06:05:34.641Z,967.96
2018-02-01T06:06:34.591Z,968.00
2018-02-01T06:07:34.541Z,967.97
2018-02-01T06:08:34.516Z,967.93
2018-02-01T06:09:34.502Z,967.95
2018-02-01T06:10:34.478Z,967.92
2018-02-01T06:11:34.366Z,967.93
2018-02-01T06:12:34.317Z,967.86
2018-02-01T06:13:34.269Z,967.80
2018-02-01T06:14:34.222Z,967.81
2018-02-01T06:15:34.181Z,967.77
2018-02-01T06:16:34.131Z,967.77
2018-02-01T06:17:34.085Z,967.80
2018-02-01T06:18:34.045Z,967.79
2018-02-01T06:19:34.000Z,967.76
2018-02-01T06:20:33.955Z,967.77
2018-02-01T06:21:33.932Z,967.81
2018-02-01T06:22:33.856Z,967.80
2018-02-01T06:23:33.813Z,967.86
2018-02-01T06:24:33.764Z,967.81
2018-02-01T06:25:33.718Z,967.84
2018-02-01T06:26:33.673Z,967.89
2018-02-01T06:27:33.633Z,967.91
2018-02-01T06:28:33.580Z,967.97
2018-02-01T06:29:33.534Z,967.96
2018-02-01T06:30:33.485Z,967.99
2018-02-01T06:31:33.443Z,967.97
2018-02-01T06:32:33.400Z,968.02
2018-02-01T06:33:33.348Z,968.06
2018-02-01T06:34:33.313Z,968.02
2018-02-01T06:35:33.275Z,968.03
2018-02-01T06:36:33.207Z,968.05
2018-02-01T06:37:33.158Z,968.03
2018-02-01T06:38:33.116Z,968.07
2018-02-01T06:39:33.080Z,968.07
2018-02-01T06:40:33.024Z,968.01
2018-02-01T06:41:32.994Z,968.01
2018-02-01T06:42:32.938Z,967.98
2018-02-01T06:43:32.890Z,968.03
2018-02-01T06:44:35.656Z,968.05
2018-02-01T06:45:32.794Z,968.06
2018-02-01T06:46:32.752Z,968.07
2018-02-01T06:47:32.703Z,968.09
2018-02-01T06:48:32.651Z,968.10
2018-02-01T06:49:32.637Z,968.10
2018-02-01T06:50:32.565Z,968.07
2018-02-01T06:51:32.539Z,968.09
2018-02-01T06:52:32.487Z,968.12
2018-02-01T06:53:32.421Z,968.16
2018-02-01T06:54:32.386Z,968.19
2018-02-01T06:55:32.331Z,968.23
2018-02-01T06:56:32.312Z,968.23
2018-02-01T06:57:32.236Z,968.26
2018-02-01T06:58:32.246Z,968.27
2018-02-01T06:59:32.149Z,968.36
2018-02-01T07:00:32.109Z,968.31
2018-02-01T07:01:32.052Z,968.32
2018-02-01T07:02:32.008Z,968.33
2018-02-01T07:03:31.953Z,968.35
2018-02-01T07:04:31.907Z,968.36
2018-02-01T07:05:31.862Z,968.36
2018-02-01T07:06:31.829Z,968.40
2018-02-01T07:07:31.772Z,968.40
2018-02-01T07:08:31.739Z,968.36
2018-02-01T07:09:31.690Z,968.37
2018-02-01T07:10:31.628Z,968.35
2018-02-01T07:11:31.600Z,968.36
2018-02-01T07:12:31.552Z,968.35
2018-02-01T07:13:31.489Z,968.35
2018-02-01T07:14:31.501Z,968.36
2018-02-01T07:15:31.404Z,968.32
2018-02-01T07:16:31.350Z,968.32
2018-02-01T07:17:31.307Z,968.35
2018-02-01T07:18:31.266Z,968.39
2018-02-01T07:19:31.237Z,968.39
2018-02-01T07:20:31.164Z,968.36
2018-02-01T07:21:31.127Z,968.37
2018-02-01T07:22:31.073Z,968.31
2018-02-01T07:23:31.029Z,968.37
2018-02-01T07:24:30.976Z,968.39
2018-02-01T07:25:31.030Z,968.42
2018-02-01T07:26:30.886Z,968.37
2018-02-01T07:27:30.901Z,968.37
2018-02-01T07:28:30.798Z,968.39
2018-02-01T07:29:30.751Z,968.41
2018-02-01T07:30:30.715Z,968.46
2018-02-01T07:31:30.679Z,968.46
2018-02-01T07:32:30.619Z,968.50
2018-02-01T07:33:30.567Z,968.48
2018-02-01T07:34:30.520Z,968.51
2018-02-01T07:35:30.473Z,968.49
2018-02-01T07:36:30.426Z,968.48
2018-02-01T07:37:30.432Z,968.46
2018-02-01T07:38:30.337Z,968.44
2018-02-01T07:39:30.285Z,968.44
2018-02-01T07:40:30.244Z,968.43
2018-02-01T07:41:30.197Z,968.44
2018-02-01T07:42:30.157Z,968.43
2018-02-01T07:43:30.095Z,968.38
2018-02-01T07:44:30.054Z,968.39
2018-02-01T07:45:30.007Z,968.41
2018-02-01T07:46:29.963Z,968.41
2018-02-01T07:47:29.923Z,968.44
2018-02-01T07:48:29.869Z,968.43
2018-02-01T07:49:29.827Z,968.43
2018-02-01T07:50:29.798Z,968.40
2018-02-01T07:51:29.739Z,968.42
2018-02-01T07:52:29.708Z,968.36
2018-02-01T07:53:29.651Z,968.33
2018-02-01T07:54:29.606Z,968.33
2018-02-01T07:55:29.550Z,968.32
2018-02-01T07:56:29.588Z,968.37
2018-02-01T07:57:29.762Z,968.34
2018-02-01T07:58:29.414Z,968.38
2018-02-01T07:59:29.380Z,968.37
2018-02-01T08:00:29.459Z,968.41
2018-02-01T08:01:29.274Z,968.43
2018-02-01T08:02:29.241Z,968.43
2018-02-01T08:03:29.229Z,968.41
2018-02-01T08:04:29.173Z,968.41
2018-02-01T08:05:29.102Z,968.39
2018-02-01T08:06:29.046Z,968.37
2018-02-01T08:07:29.024Z,968.34
2018-02-01T08:08:28.951Z,968.29
2018-02-01T08:09:28.928Z,968.29
2018-02-01T08:10:28.856Z,968.30
2018-02-01T08:11:28.822Z,968.33
2018-02-01T08:12:28.803Z,968.32
2018-02-01T08:13:28.730Z,968.33
2018-02-01T08:14:28.698Z,968.26
2018-02-01T08:15:28.646Z,968.26
2018-02-01T08:16:28.620Z,968.26
2018-02-01T08:17:28.557Z,968.26
2018-02-01T08:18:28.516Z,968.27
2018-02-01T08:19:28.460Z,968.30
2018-02-01T08:20:28.402Z,968.31
2018-02-01T08:21:28.384Z,968.26
2018-02-01T08:22:28.327Z,968.28
2018-02-01T08:23:28.271Z,968.24
2018-02-01T08:24:28.234Z,968.29
2018-02-01T08:25:28.182Z,968.27
2018-02-01T08:26:28.127Z,968.29
2018-02-01T08:27:28.089Z,968.27
2018-02-01T08:28:28.072Z,968.28
2018-02-01T08:29:28.052Z,968.32
2018-02-01T08:30:27.967Z,968.35
2018-02-01T08:31:27.913Z,968.31
2018-02-01T08:32:27.853Z,968.29
2018-02-01T08:33:27.809Z,968.29
2018-02-01T08:34:27.771Z,968.27
2018-02-01T08:35:27.729Z,968.28
2018-02-01T08:36:27.678Z,968.29
2018-02-01T08:37:27.632Z,968.27
2018-02-01T08:38:27.595Z,968.25
2018-02-01T08:39:27.545Z,968.20
2018-02-01T08:40:27.526Z,968.16
2018-02-01T08:41:27.465Z,968.16
2018-02-01T08:42:27.405Z,968.19
2018-02-01T08:43:27.367Z,968.17
2018-02-01T08:44:27.343Z,968.19
2018-02-01T08:45:27.278Z,968.22
2018-02-01T08:46:27.238Z,968.26
2018-02-01T08:47:27.188Z,968.32
2018-02-01T08:48:27.160Z,968.36
2018-02-01T08:49:27.093Z,968.36
2018-02-01T08:50:27.074Z,968.31
2018-02-01T08:51:27.015Z,968.29
2018-02-01T08:52:27.005Z,968.28
2018-02-01T08:53:26.925Z,968.24
2018-02-01T08:54:26.869Z,968.27
2018-02-01T08:55:26.831Z,968.27
2018-02-01T08:56:26.790Z,968.26
2018-02-01T08:57:26.744Z,968.28
2018-02-01T08:58:26.693Z,968.25
2018-02-01T08:59:26.660Z,968.24
2018-02-01T09:00:26.608Z,968.23
2018-02-01T09:01:26.556Z,968.21
2018-02-01T09:02:26.538Z,968.18
2018-02-01T09:03:26.469Z,968.25
2018-02-01T09:04:26.424Z,968.26
2018-02-01T09:05:26.386Z,968.28
2018-02-01T09:06:26.334Z,968.30
2018-02-01T09:07:26.322Z,968.33
2018-02-01T09:08:26.264Z,968.40
2018-02-01T09:09:26.218Z,968.42
2018-02-01T09:10:26.168Z,968.45
2018-02-01T09:11:26.133Z,968.52
2018-02-01T09:12:26.081Z,968.51
2018-02-01T09:13:26.037Z,968.56
2018-02-01T09:14:25.994Z,968.58
2018-02-01T09:15:26.012Z,968.59
2018-02-01T09:16:25.904Z,968.63
2018-02-01T09:17:25.872Z,968.63
2018-02-01T09:18:25.836Z,968.64
2018-02-01T09:19:25.782Z,968.66
2018-02-01T09:20:25.726Z,968.69
2018-02-01T09:21:25.689Z,968.71
2018-02-01T09:22:25.654Z,968.74
2018-02-01T09:23:27.176Z,968.75
2018-02-01T09:24:25.561Z,968.74
2018-02-01T09:25:25.527Z,968.76
2018-02-01T09:26:25.474Z,968.78
2018-02-01T09:27:25.460Z,968.82
2018-02-01T09:28:25.407Z,968.80
2018-02-01T09:29:25.356Z,968.71
2018-02-01T09:30:25.375Z,968.74
2018-02-01T09:31:25.303Z,968.69
2018-02-01T09:32:25.238Z,968.69
2018-02-01T09:33:25.219Z,968.68
2018-02-01T09:34:25.196Z,968.66
2018-02-01T09:35:25.140Z,968.69
2018-02-01T09:36:25.092Z,968.64
2018-02-01T09:37:25.033Z,968.65
2018-02-01T09:38:24.977Z,968.70
2018-02-01T09:39:24.933Z,968.66
2018-02-01T09:40:24.915Z,968.70
2018-02-01T09:41:24.848Z,968.72
2018-02-01T09:42:24.821Z,968.73
2018-02-01T09:43:24.787Z,968.76
2018-02-01T09:44:24.770Z,968.74
2018-02-01T09:45:24.696Z,968.80
2018-02-01T09:46:24.652Z,968.78
2018-02-01T09:47:24.605Z,968.78
2018-02-01T09:48:24.571Z,968.74
2018-02-01T09:49:24.537Z,968.76
2018-02-01T09:50:24.502Z,968.76
2018-02-01T09:51:24.440Z,968.78
2018-02-01T09:52:24.403Z,968.81
2018-02-01T09:53:24.344Z,968.79
2018-02-01T09:54:24.308Z,968.78
2018-02-01T09:55:24.319Z,968.75
2018-02-01T09:56:24.235Z,968.79
2018-02-01T09:57:24.179Z,968.82
2018-02-01T09:58:24.154Z,968.83
2018-02-01T09:59:24.089Z,968.82
2018-02-01T10:00:24.058Z,968.80
2018-02-01T10:01:24.015Z,968.80
2018-02-01T10:02:23.968Z,968.82
2018-02-01T10:03:23.915Z,968.89
2018-02-01T10:04:23.875Z,968.88
2018-02-01T10:05:23.852Z,968.91
2018-02-01T10:06:23.813Z,968.93
2018-02-01T10:07:23.751Z,968.94
2018-02-01T10:08:23.718Z,968.96
2018-02-01T10:09:23.669Z,968.97
2018-02-01T10:10:23.639Z,968.93
2018-02-01T10:11:23.585Z,968.94
2018-02-01T10:12:23.542Z,968.94
2018-02-01T10:13:23.502Z,968.92
2018-02-01T10:14:23.526Z,968.94
2018-02-01T10:15:23.430Z,968.95
2018-02-01T10:16:23.398Z,968.93
2018-02-01T10:17:23.350Z,968.94
2018-02-01T10:18:23.298Z,968.90
2018-02-01T10:19:23.254Z,968.93
2018-02-01T10:20:23.209Z,968.87
2018-02-01T10:21:23.166Z,968.88
2018-02-01T10:22:26.736Z,968.90
2018-02-01T10:23:26.996Z,968.88
2018-02-01T10:24:23.809Z,968.91
2018-02-01T10:25:24.684Z,968.87
2018-02-01T10:26:24.724Z,968.92
2018-02-01T10:27:23.174Z,968.85
2018-02-01T10:28:23.131Z,968.90
2018-02-01T10:29:23.134Z,968.88
2018-02-01T10:30:23.113Z,968.95
2018-02-01T10:31:23.042Z,968.90
2018-02-01T10:32:22.893Z,968.88
2018-02-01T10:33:23.202Z,968.79
2018-02-01T10:34:22.901Z,968.83
2018-02-01T10:35:23.031Z,968.82
2018-02-01T10:36:22.942Z,968.83
2018-02-01T10:37:22.810Z,968.88
2018-02-01T10:38:22.734Z,968.89
2018-02-01T10:39:22.700Z,968.88
2018-02-01T10:40:22.673Z,968.87
2018-02-01T10:41:22.449Z,968.88
2018-02-01T10:42:22.471Z,968.91
2018-02-01T10:43:22.292Z,968.92
2018-02-01T10:44:22.188Z,968.96
2018-02-01T10:45:22.194Z,968.93
2018-02-01T10:46:22.265Z,968.89
2018-02-01T10:47:22.188Z,968.88
2018-02-01T10:48:22.286Z,968.88
2018-02-01T10:49:22.043Z,968.90
2018-02-01T10:50:21.964Z,968.93
2018-02-01T10:51:21.949Z,968.94
2018-02-01T10:52:21.892Z,968.96
2018-02-01T10:53:22.074Z,968.99
2018-02-01T10:54:21.858Z,968.99
2018-02-01T10:55:21.870Z,968.99
2018-02-01T10:56:21.663Z,968.97
2018-02-01T10:57:21.652Z,968.96
2018-02-01T10:58:21.580Z,968.91
2018-02-01T10:59:21.541Z,968.94
2018-02-01T11:00:21.533Z,968.86
2018-02-01T11:01:21.597Z,968.92
2018-02-01T11:02:21.741Z,968.92
2018-02-01T11:03:21.405Z,968.94
2018-02-01T11:04:21.338Z,969.00
2018-02-01T11:05:21.370Z,968.97
2018-02-01T11:06:21.249Z,968.93
2018-02-01T11:07:21.228Z,968.99
2018-02-01T11:08:21.260Z,968.95
2018-02-01T11:09:21.114Z,968.97
2018-02-01T11:10:21.068Z,968.94
2018-02-01T11:11:21.036Z,968.95
2018-02-01T11:12:20.989Z,968.99
2018-02-01T11:13:20.949Z,968.89
2018-02-01T11:14:20.898Z,968.90
2018-02-01T11:15:20.865Z,968.95
2018-02-01T11:16:20.812Z,968.94
2018-02-01T11:17:20.785Z,968.94
2018-02-01T11:18:20.770Z,968.94
2018-02-01T11:19:20.696Z,968.94
2018-02-01T11:20:20.654Z,968.92
2018-02-01T11:21:20.606Z,968.95
2018-02-01T11:22:20.742Z,968.98
2018-02-01T11:23:20.580Z,968.97
2018-02-01T11:24:20.500Z,968.96
2018-02-01T11:25:20.459Z,968.97
2018-02-01T11:26:20.582Z,968.96
2018-02-01T11:27:20.562Z,968.97
2018-02-01T11:28:20.461Z,968.95
2018-02-01T11:29:20.408Z,968.86
2018-02-01T11:30:20.390Z,968.84
2018-02-01T11:31:20.295Z,968.81
2018-02-01T11:32:20.259Z,968.89
2018-02-01T11:33:20.819Z,968.82
2018-02-01T11:34:20.081Z,968.89
2018-02-01T11:35:20.130Z,968.93
2018-02-01T11:36:20.010Z,968.95
2018-02-01T11:37:19.975Z,968.96
2018-02-01T11:38:20.007Z,968.96
2018-02-01T11:39:20.628Z,968.90
2018-02-01T11:40:19.866Z,968.91
2018-02-01T11:41:19.948Z,968.87
2018-02-01T11:42:19.861Z,968.81
2018-02-01T11:43:19.834Z,968.78
2018-02-01T11:44:19.834Z,968.71
2018-02-01T11:45:19.666Z,968.69
2018-02-01T11:46:19.652Z,968.74
2018-02-01T11:47:19.548Z,968.80
2018-02-01T11:48:19.729Z,968.81
2018-02-01T11:49:19.646Z,968.82
2018-02-01T11:50:19.518Z,968.73
2018-02-01T11:51:19.568Z,968.71
2018-02-01T11:52:19.357Z,968.74
2018-02-01T11:53:19.304Z,968.79
2018-02-01T11:54:19.261Z,968.70
2018-02-01T11:55:19.528Z,968.71
2018-02-01T11:56:19.244Z,968.69
2018-02-01T11:57:19.266Z,968.68
2018-02-01T11:58:19.170Z,968.65
2018-02-01T11:59:19.083Z,968.72
2018-02-01T12:00:19.105Z,968.68
2018-02-01T12:01:18.962Z,968.66
2018-02-01T12:02:18.945Z,968.62
2018-02-01T12:03:18.925Z,968.55
2018-02-01T12:04:18.966Z,968.61
2018-02-01T12:05:18.842Z,968.56
2018-02-01T12:06:18.780Z,968.59
2018-02-01T12:07:18.964Z,968.61
2018-02-01T12:08:18.784Z,968.65
2018-02-01T12:09:18.743Z,968.66
2018-02-01T12:10:18.611Z,968.73
2018-02-01T12:11:18.581Z,968.66
2018-02-01T12:12:18.579Z,968.63
2018-02-01T12:13:18.789Z,968.52
2018-02-01T12:14:18.552Z,968.50
2018-02-01T12:15:18.440Z,968.48
2018-02-01T12:16:18.415Z,968.55
2018-02-01T12:17:18.321Z,968.54
2018-02-01T12:18:18.521Z,968.55
2018-02-01T12:19:18.341Z,968.50
2018-02-01T12:20:18.207Z,968.46
2018-02-01T12:21:18.214Z,968.44
2018-02-01T12:22:18.118Z,968.44
2018-02-01T12:23:18.060Z,968.45
2018-02-01T12:24:18.197Z,968.42
2018-02-01T12:25:17.995Z,968.41
2018-02-01T12:26:17.963Z,968.43
2018-02-01T12:27:17.887Z,968.48
2018-02-01T12:28:17.862Z,968.52